Time;durP1;ratioP1;P1;durP2;ratioP2;P2;SDS_P1;SDS_P2;PMS_P1;PMS_P2;Temp;Humidity;BMP_temperature;BMP_pressure;BME280_temperature;BME280_humidity;BME280_pressure;Samples;Min_cycle;Max_cycle;Signal;HPM_P1;HPM_P2
2021/08/10 00:01:35;;;;;;;5.60;2.62;;;;;;;;;;4348885;33;20166;-80
2021/08/10 00:04:01;;;;;;;7.05;2.30;;;;;;;;;;4360812;32;20182;-80
2021/08/10 00:06:29;;;;;;;10.30;2.47;;;;;;;;;;4348378;33;20630;-80
2021/08/10 00:08:57;;;;;;;7.12;2.40;;;;;;;;;;4349429;33;20588;-80
2021/08/10 00:11:23;;;;;;;11.20;2.80;;;;;;;;;;4348153;33;20544;-80
2021/08/10 00:13:48;;;;;;;6.93;2.83;;;;;;;;;;4362487;32;20135;-79
2021/08/10 00:16:16;;;;;;;6.47;2.35;;;;;;;;;;4347947;33;20653;-79
2021/08/10 00:18:42;;;;;;;10.02;3.00;;;;;;;;;;4362217;32;20181;-79
2021/08/10 00:21:08;;;;;;;9.55;2.67;;;;;;;;;;4362158;32;20583;-79
2021/08/10 00:23:36;;;;;;;10.38;2.80;;;;;;;;;;4362102;32;20182;-79
2021/08/10 00:26:02;;;;;;;9.88;3.00;;;;;;;;;;4348160;33;20236;-79
2021/08/10 00:28:27;;;;;;;7.20;2.72;;;;;;;;;;4348113;33;20159;-79
2021/08/10 00:30:52;;;;;;;7.07;2.60;;;;;;;;;;4347974;33;20194;-79
2021/08/10 00:33:17;;;;;;;7.22;2.67;;;;;;;;;;4347928;33;20163;-79
2021/08/10 00:35:43;;;;;;;11.20;3.30;;;;;;;;;;4361023;32;20236;-79
2021/08/10 00:38:09;;;;;;;8.55;3.20;;;;;;;;;;4362067;32;20140;-79
2021/08/10 00:40:38;;;;;;;9.95;3.12;;;;;;;;;;4348060;33;20182;-79
2021/08/10 00:43:22;;;;;;;7.55;3.00;;;;;;;;;;4359962;33;20163;-79
2021/08/10 00:45:47;;;;;;;5.62;2.75;;;;;;;;;;4346415;33;20220;-79
2021/08/10 00:48:20;;;;;;;5.80;3.25;;;;;;;;;;4346096;33;20162;-79
2021/08/10 00:50:46;;;;;;;8.98;2.85;;;;;;;;;;4347585;33;20162;-79
2021/08/10 00:53:11;;;;;;;9.85;3.10;;;;;;;;;;4346249;33;20194;-79
2021/08/10 00:55:36;;;;;;;11.20;3.78;;;;;;;;;;4346884;33;20174;-79
2021/08/10 00:58:36;;;;;;;;;;;;;;;;;;;;;
2021/08/10 01:00:51;;;;;;;8.85;3.03;;;;;;;;;;4345200;33;20561;-78
2021/08/10 01:03:19;;;;;;;7.40;2.90;;;;;;;;;;4346856;33;20171;-78
2021/08/10 01:05:46;;;;;;;6.10;2.95;;;;;;;;;;4346414;33;20218;-78
2021/08/10 01:08:31;;;;;;;9.93;3.20;;;;;;;;;;4346170;33;20619;-79
2021/08/10 01:11:02;;;;;;;8.13;3.00;;;;;;;;;;4332873;33;20202;-78
2021/08/10 01:13:48;;;;;;;6.93;3.37;;;;;;;;;;4346562;33;20145;-78
2021/08/10 01:16:23;;;;;;;9.05;3.00;;;;;;;;;;4345420;33;20181;-79
2021/08/10 01:19:07;;;;;;;11.02;3.30;;;;;;;;;;4346288;33;20617;-78
2021/08/10 01:21:34;;;;;;;6.40;3.20;;;;;;;;;;4332867;33;20477;-78
2021/08/10 01:24:07;;;;;;;10.20;3.65;;;;;;;;;;4345816;33;20481;-78
2021/08/10 01:26:40;;;;;;;6.47;3.33;;;;;;;;;;4344929;33;20178;-78
2021/08/10 01:29:20;;;;;;;6.05;2.97;;;;;;;;;;4345252;33;20185;-79
2021/08/10 01:31:45;;;;;;;9.13;3.47;;;;;;;;;;4332362;33;20168;-78
2021/08/10 01:34:37;;;;;;;9.50;3.30;;;;;;;;;;4332606;33;20175;-80
2021/08/10 01:37:05;;;;;;;8.60;3.62;;;;;;;;;;4330290;33;20182;-80
2021/08/10 01:39:30;;;;;;;9.73;3.40;;;;;;;;;;4345721;33;20197;-80
2021/08/10 01:41:56;;;;;;;9.68;3.42;;;;;;;;;;4344827;33;20179;-79
2021/08/10 01:44:26;;;;;;;7.97;3.60;;;;;;;;;;4344492;33;20225;-79
2021/08/10 01:46:52;;;;;;;8.77;3.40;;;;;;;;;;4345801;33;20229;-79
2021/08/10 01:49:17;;;;;;;8.80;3.55;;;;;;;;;;4331853;33;20652;-79
2021/08/10 01:51:43;;;;;;;7.68;3.30;;;;;;;;;;4344404;33;20160;-79
2021/08/10 01:54:13;;;;;;;10.73;3.40;;;;;;;;;;4345480;33;20135;-79
2021/08/10 01:56:41;;;;;;;9.40;3.40;;;;;;;;;;4332508;33;20497;-79
2021/08/10 01:59:07;;;;;;;10.00;2.97;;;;;;;;;;4346098;33;20171;-79
2021/08/10 02:01:34;;;;;;;11.45;3.28;;;;;;;;;;4344545;33;20509;-79
2021/08/10 02:03:59;;;;;;;10.75;3.50;;;;;;;;;;4332030;33;20206;-79
2021/08/10 02:06:26;;;;;;;10.88;3.50;;;;;;;;;;4345193;33;20140;-79
2021/08/10 02:08:52;;;;;;;10.38;3.85;;;;;;;;;;4344364;33;20585;-79
2021/08/10 02:11:17;;;;;;;5.87;3.45;;;;;;;;;;4344442;33;20230;-79
2021/08/10 02:13:43;;;;;;;6.07;3.72;;;;;;;;;;4345606;33;20151;-79
2021/08/10 02:16:29;;;;;;;7.90;3.42;;;;;;;;;;4331896;33;20167;-79
2021/08/10 02:19:12;;;;;;;7.07;3.65;;;;;;;;;;4332046;33;20159;-79
2021/08/10 02:21:44;;;;;;;7.85;3.40;;;;;;;;;;4332074;33;20225;-80
2021/08/10 02:24:14;;;;;;;8.73;3.60;;;;;;;;;;4345246;33;20223;-79
2021/08/10 02:27:04;;;;;;;9.90;4.57;;;;;;;;;;4344329;33;20189;-79
2021/08/10 02:29:31;;;;;;;9.77;4.00;;;;;;;;;;4345167;33;20171;-78
2021/08/10 02:31:57;;;;;;;7.12;3.78;;;;;;;;;;4345838;33;20178;-78
2021/08/10 02:34:23;;;;;;;9.73;3.90;;;;;;;;;;4345973;33;20127;-79
2021/08/10 02:37:08;;;;;;;8.27;3.62;;;;;;;;;;4344833;33;20163;-78
2021/08/10 02:39:36;;;;;;;7.35;3.80;;;;;;;;;;4345579;33;20200;-78
2021/08/10 02:42:07;;;;;;;9.15;3.83;;;;;;;;;;4345703;33;20167;-78
2021/08/10 02:44:34;;;;;;;18.23;4.37;;;;;;;;;;4346050;33;20189;-79
2021/08/10 02:47:02;;;;;;;9.85;4.20;;;;;;;;;;4344480;33;20223;-79
2021/08/10 02:49:27;;;;;;;12.05;3.92;;;;;;;;;;4345897;33;20175;-78
2021/08/10 02:51:54;;;;;;;10.20;4.40;;;;;;;;;;4344351;33;20206;-79
2021/08/10 02:54:19;;;;;;;8.05;3.60;;;;;;;;;;4344339;33;20599;-79
2021/08/10 02:56:55;;;;;;;9.60;4.05;;;;;;;;;;4331822;33;20186;-78
2021/08/10 02:59:27;;;;;;;8.60;3.75;;;;;;;;;;4344536;33;20274;-79
2021/08/10 03:01:55;;;;;;;10.85;3.87;;;;;;;;;;4345799;33;20136;-79
2021/08/10 03:04:41;;;;;;;11.27;3.95;;;;;;;;;;4344384;33;20223;-79
2021/08/10 03:07:16;;;;;;;12.70;3.95;;;;;;;;;;4344307;33;20178;-78
2021/08/10 03:09:41;;;;;;;12.40;4.22;;;;;;;;;;4346046;33;20214;-79
2021/08/10 03:12:07;;;;;;;8.90;4.20;;;;;;;;;;4344923;33;20206;-80
2021/08/10 03:14:33;;;;;;;8.90;3.97;;;;;;;;;;4332326;33;20159;-79
2021/08/10 03:17:00;;;;;;;13.18;4.50;;;;;;;;;;4346711;33;20502;-80
2021/08/10 03:19:27;;;;;;;6.28;4.00;;;;;;;;;;4335125;33;20190;-79
2021/08/10 03:21:54;;;;;;;13.55;5.03;;;;;;;;;;4349818;33;20182;-79
2021/08/10 03:24:22;;;;;;;9.65;4.55;;;;;;;;;;4359096;32;20197;-80
2021/08/10 03:26:52;;;;;;;9.90;4.10;;;;;;;;;;4334474;33;20179;-80
2021/08/10 03:29:19;;;;;;;12.15;4.32;;;;;;;;;;4335449;33;20151;-79
2021/08/10 03:31:45;;;;;;;15.75;4.72;;;;;;;;;;4334106;33;20163;-80
2021/08/10 03:34:11;;;;;;;11.27;4.20;;;;;;;;;;4334167;33;20262;-78
2021/08/10 03:36:37;;;;;;;13.75;5.70;;;;;;;;;;4358740;33;20171;-78
2021/08/10 03:39:02;;;;;;;10.38;4.68;;;;;;;;;;4334227;33;20239;-79
2021/08/10 03:41:28;;;;;;;10.52;4.95;;;;;;;;;;4333981;33;20159;-79
2021/08/10 03:43:55;;;;;;;9.57;4.85;;;;;;;;;;4333251;33;20175;-79
2021/08/10 03:46:21;;;;;;;17.30;5.47;;;;;;;;;;4334035;33;20175;-79
2021/08/10 03:48:47;;;;;;;11.98;4.75;;;;;;;;;;4358531;32;20253;-79
2021/08/10 03:51:13;;;;;;;12.95;4.90;;;;;;;;;;4334187;33;20614;-79
2021/08/10 03:53:39;;;;;;;11.70;5.00;;;;;;;;;;4334255;33;20239;-78
2021/08/10 03:56:04;;;;;;;11.20;5.15;;;;;;;;;;4333873;33;20198;-79
2021/08/10 03:58:34;;;;;;;13.43;5.28;;;;;;;;;;4346002;33;20167;-80
2021/08/10 04:01:02;;;;;;;13.38;4.90;;;;;;;;;;4334141;33;20151;-80
2021/08/10 04:03:35;;;;;;;9.70;5.15;;;;;;;;;;4347358;33;20458;-78
2021/08/10 04:06:01;;;;;;;11.65;5.60;;;;;;;;;;4334580;33;20224;-78
2021/08/10 04:08:27;;;;;;;8.30;5.15;;;;;;;;;;4349260;33;20261;-79
2021/08/10 04:10:53;;;;;;;15.50;5.90;;;;;;;;;;4339244;33;20160;-80
2021/08/10 04:13:19;;;;;;;13.50;5.60;;;;;;;;;;4334609;33;20497;-78
2021/08/10 04:15:46;;;;;;;12.35;5.78;;;;;;;;;;4337848;33;20155;-80
2021/08/10 04:18:17;;;;;;;14.10;6.43;;;;;;;;;;4336478;33;20608;-79
2021/08/10 04:20:48;;;;;;;12.18;5.53;;;;;;;;;;4335097;33;20182;-79
2021/08/10 04:23:14;;;;;;;11.55;6.07;;;;;;;;;;4334840;33;20230;-80
2021/08/10 04:25:40;;;;;;;13.35;5.75;;;;;;;;;;4348856;33;20572;-79
2021/08/10 04:28:05;;;;;;;15.00;6.18;;;;;;;;;;4333862;33;20166;-78
2021/08/10 04:30:34;;;;;;;12.60;6.22;;;;;;;;;;4347262;33;20485;-79
2021/08/10 04:32:59;;;;;;;11.30;5.95;;;;;;;;;;4345933;33;20235;-76
2021/08/10 04:35:25;;;;;;;12.35;5.70;;;;;;;;;;4334254;33;20508;-79
2021/08/10 04:37:51;;;;;;;13.55;5.95;;;;;;;;;;4333925;33;20190;-78
2021/08/10 04:40:17;;;;;;;12.30;5.95;;;;;;;;;;4346163;33;20194;-79
2021/08/10 04:42:58;;;;;;;12.77;6.30;;;;;;;;;;4333265;33;20164;-79
2021/08/10 04:45:23;;;;;;;15.63;6.35;;;;;;;;;;4333044;33;20649;-78
2021/08/10 04:47:49;;;;;;;13.43;5.97;;;;;;;;;;4332896;33;20225;-79
2021/08/10 04:50:15;;;;;;;15.50;6.35;;;;;;;;;;4332893;33;20589;-79
2021/08/10 04:52:41;;;;;;;13.07;6.37;;;;;;;;;;4333419;33;20171;-79
2021/08/10 04:55:07;;;;;;;16.85;6.55;;;;;;;;;;4333125;33;20187;-78
2021/08/10 04:57:33;;;;;;;14.75;6.25;;;;;;;;;;4332803;33;20169;-80
2021/08/10 04:59:59;;;;;;;14.15;6.55;;;;;;;;;;4332760;33;20240;-80
2021/08/10 05:02:24;;;;;;;15.02;7.50;;;;;;;;;;4333855;33;20155;-80
2021/08/10 05:04:50;;;;;;;16.15;6.20;;;;;;;;;;4332820;33;20156;-78
2021/08/10 05:07:15;;;;;;;17.08;8.65;;;;;;;;;;4345298;33;20155;-78
2021/08/10 05:09:42;;;;;;;13.50;6.32;;;;;;;;;;4333304;33;20167;-79
2021/08/10 05:12:07;;;;;;;10.90;6.62;;;;;;;;;;4332989;33;20190;-78
2021/08/10 05:14:33;;;;;;;14.18;6.95;;;;;;;;;;4331909;33;20655;-78
2021/08/10 05:17:00;;;;;;;13.43;7.18;;;;;;;;;;4332706;33;20155;-78
2021/08/10 05:19:26;;;;;;;16.37;7.75;;;;;;;;;;4332791;33;20155;-80
2021/08/10 05:21:51;;;;;;;12.82;6.78;;;;;;;;;;4357265;32;20175;-78
2021/08/10 05:24:16;;;;;;;15.13;6.60;;;;;;;;;;4333002;33;20202;-78
2021/08/10 05:26:42;;;;;;;12.05;6.68;;;;;;;;;;4332660;33;20597;-79
2021/08/10 05:29:07;;;;;;;17.65;7.35;;;;;;;;;;4342921;33;20623;-78
2021/08/10 05:31:32;;;;;;;17.23;6.78;;;;;;;;;;4359575;32;20205;-78
2021/08/10 05:33:58;;;;;;;11.30;6.53;;;;;;;;;;4347716;33;20185;-79
2021/08/10 05:36:23;;;;;;;15.30;6.87;;;;;;;;;;4359820;32;20539;-78
2021/08/10 05:38:50;;;;;;;16.10;6.30;;;;;;;;;;4359973;32;20625;-78
2021/08/10 05:41:16;;;;;;;13.70;6.57;;;;;;;;;;4359386;32;20163;-80
2021/08/10 05:44:10;;;;;;;13.55;6.57;;;;;;;;;;4359627;32;20159;-79
2021/08/10 05:46:47;;;;;;;13.60;6.30;;;;;;;;;;4355634;32;20167;-78
2021/08/10 05:49:13;;;;;;;15.68;6.47;;;;;;;;;;4356933;33;20505;-79
2021/08/10 05:51:40;;;;;;;11.98;6.15;;;;;;;;;;4345107;33;20164;-76
2021/08/10 05:54:12;;;;;;;14.70;6.18;;;;;;;;;;4345487;33;20135;-80
2021/08/10 05:56:38;;;;;;;11.90;5.57;;;;;;;;;;4345055;33;20187;-78
2021/08/10 05:59:03;;;;;;;11.65;6.37;;;;;;;;;;4344795;33;20274;-79
2021/08/10 06:01:28;;;;;;;10.80;5.65;;;;;;;;;;4343459;33;20172;-78
2021/08/10 06:03:54;;;;;;;12.10;5.90;;;;;;;;;;4346085;33;20232;-77
2021/08/10 06:06:19;;;;;;;15.45;5.40;;;;;;;;;;4358886;32;20159;-79
2021/08/10 06:08:44;;;;;;;12.48;5.18;;;;;;;;;;4346456;33;20458;-79
2021/08/10 06:11:09;;;;;;;14.07;6.43;;;;;;;;;;4347075;33;20159;-79
2021/08/10 06:13:36;;;;;;;17.52;6.32;;;;;;;;;;4346969;33;20230;-81
2021/08/10 06:16:01;;;;;;;14.40;6.05;;;;;;;;;;4346774;33;20250;-79
2021/08/10 06:18:27;;;;;;;12.73;7.03;;;;;;;;;;4346529;33;20246;-78
2021/08/10 06:20:52;;;;;;;14.20;6.47;;;;;;;;;;4347031;33;20190;-79
2021/08/10 06:23:17;;;;;;;16.35;7.05;;;;;;;;;;4347379;33;20259;-80
2021/08/10 06:25:42;;;;;;;15.40;8.30;;;;;;;;;;4359646;32;20166;-78
2021/08/10 06:28:08;;;;;;;16.62;8.38;;;;;;;;;;4346422;33;20554;-79
2021/08/10 06:30:33;;;;;;;12.75;7.87;;;;;;;;;;4342644;33;20189;-78
2021/08/10 06:32:58;;;;;;;19.48;8.38;;;;;;;;;;4356743;33;20504;-79
2021/08/10 06:35:23;;;;;;;14.87;7.78;;;;;;;;;;4356208;33;20163;-80
2021/08/10 06:37:49;;;;;;;18.10;7.50;;;;;;;;;;4356804;33;20708;-81
2021/08/10 06:40:14;;;;;;;16.30;6.95;;;;;;;;;;4357090;33;20156;-78
2021/08/10 06:42:39;;;;;;;17.90;7.07;;;;;;;;;;4356167;33;20189;-78
2021/08/10 06:45:05;;;;;;;14.15;6.55;;;;;;;;;;4343988;33;20182;-79
2021/08/10 06:47:30;;;;;;;12.80;7.03;;;;;;;;;;4356125;33;20270;-81
2021/08/10 06:49:56;;;;;;;11.55;7.35;;;;;;;;;;4356619;33;20160;-81
2021/08/10 06:52:24;;;;;;;17.98;7.95;;;;;;;;;;4346816;33;20174;-79
2021/08/10 06:54:49;;;;;;;16.30;7.85;;;;;;;;;;4348324;33;20161;-78
2021/08/10 06:57:14;;;;;;;14.60;7.78;;;;;;;;;;4346759;33;20163;-82
2021/08/10 06:59:39;;;;;;;12.10;7.00;;;;;;;;;;4359874;32;20194;-79
2021/08/10 07:02:05;;;;;;;12.18;7.47;;;;;;;;;;4358792;33;20260;-80
2021/08/10 07:04:30;;;;;;;12.05;8.00;;;;;;;;;;4346997;33;20167;-78
2021/08/10 07:06:56;;;;;;;20.25;7.47;;;;;;;;;;4346966;33;20151;-74
2021/08/10 07:09:22;;;;;;;14.27;7.95;;;;;;;;;;4359596;32;20283;-79
2021/08/10 07:11:48;;;;;;;11.80;6.87;;;;;;;;;;4346463;33;20214;-80
2021/08/10 07:14:16;;;;;;;15.68;7.22;;;;;;;;;;4348078;33;20158;-78
2021/08/10 07:16:51;;;;;;;12.70;6.25;;;;;;;;;;4346780;33;20496;-79
2021/08/10 07:19:47;;;;;;;11.00;5.95;;;;;;;;;;4358886;32;20634;-78
2021/08/10 07:22:24;;;;;;;9.93;5.32;;;;;;;;;;4348982;32;20237;-80
2021/08/10 07:25:04;;;;;;;10.43;5.55;;;;;;;;;;4356208;33;20185;-79
2021/08/10 07:27:29;;;;;;;12.48;5.18;;;;;;;;;;4349669;33;20151;-79
2021/08/10 07:29:54;;;;;;;13.30;5.62;;;;;;;;;;4348680;33;20167;-78
2021/08/10 07:32:20;;;;;;;10.05;5.15;;;;;;;;;;4348512;33;20206;-78
2021/08/10 07:34:59;;;;;;;11.88;5.00;;;;;;;;;;4362509;32;20181;-79
2021/08/10 07:37:40;;;;;;;10.57;4.87;;;;;;;;;;4349211;33;20212;-78
2021/08/10 07:40:23;;;;;;;15.90;4.70;;;;;;;;;;4362172;32;20581;-80
2021/08/10 07:42:48;;;;;;;8.70;4.47;;;;;;;;;;4349247;33;20201;-80
2021/08/10 07:45:13;;;;;;;8.73;4.10;;;;;;;;;;4348797;33;20592;-79
2021/08/10 07:47:40;;;;;;;11.77;4.50;;;;;;;;;;4357546;33;20222;-79
2021/08/10 07:50:05;;;;;;;9.98;3.87;;;;;;;;;;4361249;32;20163;-79
2021/08/10 07:52:30;;;;;;;15.00;4.20;;;;;;;;;;4360374;32;20190;-79
2021/08/10 07:54:59;;;;;;;8.27;3.55;;;;;;;;;;4373770;32;20262;-80
2021/08/10 07:57:26;;;;;;;9.00;3.55;;;;;;;;;;4361406;32;20179;-79
2021/08/10 07:59:52;;;;;;;8.52;3.45;;;;;;;;;;4373336;32;20179;-80
2021/08/10 08:02:17;;;;;;;8.15;3.72;;;;;;;;;;4360544;32;20190;-79
2021/08/10 08:04:45;;;;;;;10.32;3.62;;;;;;;;;;4360188;33;20226;-79
2021/08/10 08:07:10;;;;;;;9.13;3.55;;;;;;;;;;4372975;32;20584;-78
2021/08/10 08:09:36;;;;;;;8.27;4.07;;;;;;;;;;4360408;33;20213;-77
2021/08/10 08:12:30;;;;;;;9.23;3.45;;;;;;;;;;4360914;32;20155;-78
2021/08/10 08:15:04;;;;;;;7.82;3.40;;;;;;;;;;4362139;32;20241;-79
2021/08/10 08:17:31;;;;;;;9.50;3.85;;;;;;;;;;4373202;32;20190;-79
2021/08/10 08:19:59;;;;;;;8.15;3.85;;;;;;;;;;4372933;32;20186;-78
2021/08/10 08:22:24;;;;;;;7.57;4.10;;;;;;;;;;4372904;32;20253;-78
2021/08/10 08:24:49;;;;;;;16.67;6.00;;;;;;;;;;4360344;32;20167;-78
2021/08/10 08:27:14;;;;;;;13.57;5.37;;;;;;;;;;4361985;32;20434;-79
2021/08/10 08:29:40;;;;;;;28.17;7.47;;;;;;;;;;4360444;32;20159;-79
2021/08/10 08:32:07;;;;;;;44.33;11.60;;;;;;;;;;4360240;32;20628;-80
2021/08/10 08:34:32;;;;;;;9.75;4.30;;;;;;;;;;4360540;32;20592;-80
2021/08/10 08:37:07;;;;;;;9.02;4.78;;;;;;;;;;4361846;32;20163;-79
2021/08/10 08:39:32;;;;;;;7.72;4.40;;;;;;;;;;4372910;32;20178;-79
2021/08/10 08:42:01;;;;;;;11.40;5.03;;;;;;;;;;4372873;32;20195;-79
2021/08/10 08:44:36;;;;;;;9.43;4.72;;;;;;;;;;4360283;32;20229;-78
2021/08/10 08:47:04;;;;;;;8.13;4.43;;;;;;;;;;4359951;32;20209;-79
2021/08/10 08:49:31;;;;;;;7.78;4.32;;;;;;;;;;4360268;32;20185;-77
2021/08/10 08:51:58;;;;;;;7.18;4.60;;;;;;;;;;4360478;32;20155;-79
2021/08/10 08:54:24;;;;;;;7.75;4.18;;;;;;;;;;4359834;32;20163;-79
2021/08/10 08:56:56;;;;;;;6.22;3.50;;;;;;;;;;4359901;32;20592;-79
2021/08/10 08:59:22;;;;;;;7.68;4.35;;;;;;;;;;4361032;32;20144;-79
2021/08/10 09:01:52;;;;;;;9.90;4.43;;;;;;;;;;4362294;32;20131;-79
2021/08/10 09:04:20;;;;;;;6.87;3.55;;;;;;;;;;4360485;32;20275;-77
2021/08/10 09:06:48;;;;;;;7.20;3.17;;;;;;;;;;4372226;32;20184;-79
2021/08/10 09:09:18;;;;;;;4.78;2.90;;;;;;;;;;4360791;32;20163;-78
2021/08/10 09:11:47;;;;;;;6.22;3.10;;;;;;;;;;4360293;33;20504;-81
2021/08/10 09:14:12;;;;;;;8.10;2.90;;;;;;;;;;4359643;32;20568;-77
2021/08/10 09:16:37;;;;;;;8.60;3.30;;;;;;;;;;4359451;33;20221;-80
2021/08/10 09:19:02;;;;;;;7.32;3.03;;;;;;;;;;4361021;32;20174;-79
2021/08/10 09:21:29;;;;;;;5.35;2.95;;;;;;;;;;4359576;32;20209;-78
2021/08/10 09:23:57;;;;;;;6.70;2.97;;;;;;;;;;4359471;32;20163;-79
2021/08/10 09:26:47;;;;;;;5.97;2.87;;;;;;;;;;4360879;32;20136;-79
2021/08/10 09:29:12;;;;;;;4.87;2.87;;;;;;;;;;4360375;32;20222;-79
2021/08/10 09:31:38;;;;;;;5.18;3.20;;;;;;;;;;4361299;32;20521;-79
2021/08/10 09:34:04;;;;;;;6.62;3.10;;;;;;;;;;4372444;32;20159;-79
2021/08/10 09:36:30;;;;;;;8.57;3.33;;;;;;;;;;4361268;32;20158;-79
2021/08/10 09:39:03;;;;;;;6.47;3.37;;;;;;;;;;4359382;32;20193;-80
2021/08/10 09:41:39;;;;;;;8.75;3.40;;;;;;;;;;4372393;32;20171;-79
2021/08/10 09:44:08;;;;;;;9.05;3.65;;;;;;;;;;4372177;32;20146;-78
2021/08/10 09:46:34;;;;;;;9.15;3.35;;;;;;;;;;4371517;32;20163;-79
2021/08/10 09:49:02;;;;;;;8.15;3.47;;;;;;;;;;4359559;32;20476;-77
2021/08/10 09:51:31;;;;;;;7.45;3.50;;;;;;;;;;4358940;32;20202;-79
2021/08/10 09:54:13;;;;;;;;;;;;;;;;;;;;;
2021/08/10 09:56:39;;;;;;;7.62;3.53;;;;;;;;;;4361081;33;20173;-78
2021/08/10 09:59:06;;;;;;;7.90;3.47;;;;;;;;;;4367454;32;20171;-79
2021/08/10 10:01:42;;;;;;;7.68;3.62;;;;;;;;;;4370340;32;20178;-78
2021/08/10 10:04:10;;;;;;;8.32;3.00;;;;;;;;;;4360177;32;20202;-80
2021/08/10 10:06:38;;;;;;;7.28;3.33;;;;;;;;;;4371714;32;20182;-79
2021/08/10 10:09:04;;;;;;;7.87;3.60;;;;;;;;;;4355682;33;20245;-78
2021/08/10 10:11:32;;;;;;;10.40;3.78;;;;;;;;;;4358665;32;20166;-77
2021/08/10 10:13:58;;;;;;;7.30;3.33;;;;;;;;;;4359984;32;20139;-79
2021/08/10 10:16:24;;;;;;;10.30;3.85;;;;;;;;;;4371412;32;20159;-79
2021/08/10 10:18:52;;;;;;;8.98;3.33;;;;;;;;;;4358774;33;20159;-79
2021/08/10 10:21:21;;;;;;;8.88;3.35;;;;;;;;;;4359528;32;20162;-80
2021/08/10 10:23:49;;;;;;;8.13;3.75;;;;;;;;;;4359287;32;20189;-79
2021/08/10 10:26:14;;;;;;;8.40;3.10;;;;;;;;;;4359419;32;20222;-76
2021/08/10 10:28:40;;;;;;;9.32;3.22;;;;;;;;;;4362340;32;20159;-78
2021/08/10 10:31:05;;;;;;;7.40;3.40;;;;;;;;;;4354268;33;20520;-78
2021/08/10 10:33:31;;;;;;;9.75;3.55;;;;;;;;;;4358609;33;20217;-79
2021/08/10 10:35:58;;;;;;;7.30;3.20;;;;;;;;;;4358707;33;20508;-80
2021/08/10 10:38:23;;;;;;;8.43;3.33;;;;;;;;;;4360360;32;20135;-77
2021/08/10 10:40:52;;;;;;;6.53;3.10;;;;;;;;;;4359150;33;20158;-79
2021/08/10 10:43:27;;;;;;;8.13;3.12;;;;;;;;;;4360185;32;20170;-78
2021/08/10 10:45:54;;;;;;;7.85;3.00;;;;;;;;;;4358806;33;20197;-80
2021/08/10 10:48:22;;;;;;;11.18;3.80;;;;;;;;;;4358673;33;20238;-76
2021/08/10 10:51:04;;;;;;;6.90;2.78;;;;;;;;;;4371255;32;20203;-79
2021/08/10 10:53:29;;;;;;;8.05;3.00;;;;;;;;;;4358709;33;20492;-77
2021/08/10 10:55:55;;;;;;;9.27;3.08;;;;;;;;;;4359877;33;20238;-78
2021/08/10 10:58:28;;;;;;;7.65;3.42;;;;;;;;;;4359088;33;20189;-80
2021/08/10 11:01:09;;;;;;;5.75;3.17;;;;;;;;;;4360032;32;20132;-79
2021/08/10 11:03:34;;;;;;;9.55;3.50;;;;;;;;;;4358638;33;20741;-80
2021/08/10 11:06:19;;;;;;;7.15;3.30;;;;;;;;;;4358385;33;20226;-79
2021/08/10 11:08:47;;;;;;;8.05;2.90;;;;;;;;;;4356112;33;20174;-79
2021/08/10 11:11:31;;;;;;;6.55;2.65;;;;;;;;;;4362258;32;20168;-79
2021/08/10 11:13:57;;;;;;;7.68;3.10;;;;;;;;;;4370889;32;20170;-79
2021/08/10 11:16:27;;;;;;;9.27;2.80;;;;;;;;;;4368887;32;20182;-79
2021/08/10 11:19:12;;;;;;;9.52;3.47;;;;;;;;;;4349978;33;20194;-80
2021/08/10 11:21:37;;;;;;;6.72;2.83;;;;;;;;;;4358766;32;20202;-78
2021/08/10 11:24:22;;;;;;;7.30;3.17;;;;;;;;;;4346309;33;20225;-79
2021/08/10 11:26:51;;;;;;;6.93;2.87;;;;;;;;;;4359193;33;20647;-78
2021/08/10 11:29:39;;;;;;;6.15;2.78;;;;;;;;;;4359271;33;20181;-79
2021/08/10 11:32:24;;;;;;;6.45;2.65;;;;;;;;;;4359271;33;20201;-81
2021/08/10 11:34:52;;;;;;;6.47;2.80;;;;;;;;;;4358659;33;20182;-79
2021/08/10 11:37:18;;;;;;;5.90;2.53;;;;;;;;;;4359167;32;20202;-78
2021/08/10 11:40:02;;;;;;;7.47;3.20;;;;;;;;;;4361583;32;20156;-80
2021/08/10 11:42:30;;;;;;;6.82;2.58;;;;;;;;;;4362487;32;20274;-79
2021/08/10 11:44:56;;;;;;;6.53;3.20;;;;;;;;;;4360947;32;20205;-78
2021/08/10 11:47:21;;;;;;;7.32;2.67;;;;;;;;;;4361278;32;20183;-79
2021/08/10 11:49:54;;;;;;;5.57;2.37;;;;;;;;;;4361937;32;20165;-79
2021/08/10 11:52:19;;;;;;;6.95;3.55;;;;;;;;;;4360572;32;20159;-79
2021/08/10 11:54:57;;;;;;;3.40;2.30;;;;;;;;;;4360855;32;20229;-79
2021/08/10 11:57:22;;;;;;;4.87;2.40;;;;;;;;;;4361060;32;20155;-79
2021/08/10 11:59:47;;;;;;;5.97;2.70;;;;;;;;;;4361403;32;20245;-78
2021/08/10 12:02:12;;;;;;;5.70;3.40;;;;;;;;;;4361603;32;20159;-77
2021/08/10 12:04:38;;;;;;;4.90;2.90;;;;;;;;;;4361790;32;20322;-80
2021/08/10 12:07:05;;;;;;;5.80;2.60;;;;;;;;;;4360522;33;20374;-80
2021/08/10 12:09:39;;;;;;;4.18;2.30;;;;;;;;;;4361693;32;20595;-76
2021/08/10 12:12:06;;;;;;;4.37;2.42;;;;;;;;;;4362660;32;20144;-77
2021/08/10 12:14:33;;;;;;;4.43;2.60;;;;;;;;;;4360585;32;20283;-78
2021/08/10 12:17:08;;;;;;;3.90;2.20;;;;;;;;;;4360926;32;20191;-79
2021/08/10 12:19:35;;;;;;;4.65;2.33;;;;;;;;;;4361792;32;20222;-80
2021/08/10 12:22:01;;;;;;;15.15;10.95;;;;;;;;;;4359858;32;20574;-78
2021/08/10 12:24:28;;;;;;;5.40;2.85;;;;;;;;;;4360640;32;20591;-79
2021/08/10 12:27:01;;;;;;;5.72;2.85;;;;;;;;;;4360682;32;20197;-80
2021/08/10 12:29:37;;;;;;;5.20;2.60;;;;;;;;;;4360549;32;20511;-79
2021/08/10 12:32:06;;;;;;;6.45;2.75;;;;;;;;;;4372680;32;20170;-75
2021/08/10 12:34:33;;;;;;;4.82;2.70;;;;;;;;;;4360329;32;20287;-78
2021/08/10 12:36:59;;;;;;;5.05;2.50;;;;;;;;;;4361440;32;20131;-77
2021/08/10 12:39:24;;;;;;;4.62;2.45;;;;;;;;;;4373222;32;20171;-79
2021/08/10 12:41:50;;;;;;;6.45;2.65;;;;;;;;;;4360934;32;20191;-78
2021/08/10 12:44:16;;;;;;;5.80;2.50;;;;;;;;;;4347425;33;20155;-79
2021/08/10 12:46:41;;;;;;;4.72;2.80;;;;;;;;;;4360309;33;20193;-79
2021/08/10 12:49:09;;;;;;;5.00;2.30;;;;;;;;;;4361059;32;20466;-77
2021/08/10 12:51:54;;;;;;;4.12;2.60;;;;;;;;;;4361067;32;20143;-78
2021/08/10 12:54:20;;;;;;;4.32;2.78;;;;;;;;;;4360475;32;20158;-79
2021/08/10 12:56:46;;;;;;;5.18;3.03;;;;;;;;;;4361416;32;20139;-77
2021/08/10 12:59:14;;;;;;;5.43;2.22;;;;;;;;;;4359575;33;20178;-79
2021/08/10 13:01:45;;;;;;;4.85;2.55;;;;;;;;;;4359608;33;20182;-79
2021/08/10 13:04:13;;;;;;;4.85;2.50;;;;;;;;;;4360581;32;20492;-78
2021/08/10 13:06:40;;;;;;;5.22;2.65;;;;;;;;;;4359751;32;20179;-78
2021/08/10 13:09:08;;;;;;;4.50;2.58;;;;;;;;;;4359756;33;20245;-78
2021/08/10 13:11:34;;;;;;;5.62;3.08;;;;;;;;;;4359453;33;20318;-74
2021/08/10 13:14:03;;;;;;;4.03;2.78;;;;;;;;;;4359914;32;20159;-79
2021/08/10 13:16:47;;;;;;;5.22;2.70;;;;;;;;;;4359587;32;20164;-77
2021/08/10 13:19:13;;;;;;;7.05;4.78;;;;;;;;;;4360007;33;20196;-80
2021/08/10 13:21:43;;;;;;;5.37;2.83;;;;;;;;;;4360174;32;20159;-78
2021/08/10 13:24:08;;;;;;;4.78;2.42;;;;;;;;;;4360713;32;20192;-75
2021/08/10 13:26:41;;;;;;;5.35;2.80;;;;;;;;;;4359952;32;20159;-79
2021/08/10 13:29:06;;;;;;;3.62;2.72;;;;;;;;;;4372359;32;20185;-79
2021/08/10 13:31:44;;;;;;;3.60;2.37;;;;;;;;;;4359876;32;20155;-78
2021/08/10 13:34:11;;;;;;;5.50;2.60;;;;;;;;;;4359585;32;20228;-79
2021/08/10 13:36:37;;;;;;;4.90;2.67;;;;;;;;;;4359649;32;20155;-79
2021/08/10 13:39:03;;;;;;;3.20;2.60;;;;;;;;;;4372035;32;20190;-75
2021/08/10 13:41:32;;;;;;;5.15;2.70;;;;;;;;;;4349055;32;20213;-79
2021/08/10 13:43:58;;;;;;;3.05;2.22;;;;;;;;;;4367952;32;20194;-75
2021/08/10 13:46:30;;;;;;;4.90;2.50;;;;;;;;;;4359298;32;20623;-78
2021/08/10 13:49:00;;;;;;;4.78;2.42;;;;;;;;;;4360331;32;20159;-78
2021/08/10 13:51:25;;;;;;;4.18;2.50;;;;;;;;;;4359488;32;20615;-79
2021/08/10 13:53:51;;;;;;;5.03;2.65;;;;;;;;;;4360542;33;20128;-78
2021/08/10 13:56:17;;;;;;;5.22;2.70;;;;;;;;;;4359673;32;20230;-81
2021/08/10 13:58:48;;;;;;;4.80;2.58;;;;;;;;;;4360082;32;20633;-78
2021/08/10 14:01:21;;;;;;;5.15;2.53;;;;;;;;;;4360930;32;20600;-75
2021/08/10 14:03:46;;;;;;;3.92;2.67;;;;;;;;;;4346975;33;20230;-78
2021/08/10 14:06:18;;;;;;;3.22;2.20;;;;;;;;;;4360639;33;20189;-80
2021/08/10 14:08:47;;;;;;;7.62;2.50;;;;;;;;;;4360829;32;20139;-79
2021/08/10 14:11:13;;;;;;;4.55;2.65;;;;;;;;;;4358703;32;20619;-78
2021/08/10 14:13:38;;;;;;;4.45;2.30;;;;;;;;;;4359301;32;20624;-78
2021/08/10 14:16:06;;;;;;;5.70;2.87;;;;;;;;;;4358860;32;20597;-77
2021/08/10 14:18:32;;;;;;;3.33;2.55;;;;;;;;;;4359711;32;20228;-79
2021/08/10 14:20:57;;;;;;;4.15;2.40;;;;;;;;;;4358852;33;20194;-79
2021/08/10 14:23:23;;;;;;;4.37;2.40;;;;;;;;;;4358928;32;20585;-77
2021/08/10 14:25:48;;;;;;;4.37;2.30;;;;;;;;;;4346779;33;20159;-75
2021/08/10 14:28:13;;;;;;;3.65;2.60;;;;;;;;;;4359926;33;20143;-78
2021/08/10 14:30:38;;;;;;;3.62;2.37;;;;;;;;;;4369937;32;20237;-75
2021/08/10 14:33:03;;;;;;;3.43;2.33;;;;;;;;;;4358822;32;20270;-79
2021/08/10 14:35:29;;;;;;;4.97;2.60;;;;;;;;;;4359525;33;20276;-79
2021/08/10 14:37:54;;;;;;;4.35;2.60;;;;;;;;;;4363791;32;20167;-79
2021/08/10 14:40:19;;;;;;;5.05;2.58;;;;;;;;;;4363382;32;20507;-78
2021/08/10 14:42:45;;;;;;;4.80;2.20;;;;;;;;;;4358858;33;20547;-78
2021/08/10 14:45:11;;;;;;;4.40;2.37;;;;;;;;;;4358700;33;20158;-78
2021/08/10 14:47:39;;;;;;;5.78;2.30;;;;;;;;;;4356675;33;20561;-79
2021/08/10 14:50:05;;;;;;;6.15;2.58;;;;;;;;;;4343729;33;20226;-74